createdAt,value
2022-10-24T00:01:09.670Z,6.85
2022-10-24T00:03:36.142Z,7.97
2022-10-24T00:06:04.720Z,6.20
2022-10-24T00:08:31.275Z,6.70
2022-10-24T00:10:57.755Z,6.63
2022-10-24T00:13:24.282Z,5.93
2022-10-24T00:15:51.002Z,6.75
2022-10-24T00:18:17.596Z,9.63
2022-10-24T00:20:44.530Z,6.68
2022-10-24T00:23:13.632Z,8.20
2022-10-24T00:25:40.215Z,8.82
2022-10-24T00:28:06.692Z,7.05
2022-10-24T00:30:33.281Z,9.48
2022-10-24T00:32:59.782Z,8.38
2022-10-24T00:35:26.332Z,7.30
2022-10-24T00:37:52.794Z,5.97
2022-10-24T00:40:20.297Z,7.20
2022-10-24T00:42:47.254Z,11.77
2022-10-24T00:45:44.847Z,9.38
2022-10-24T00:48:17.426Z,6.32
2022-10-24T00:50:46.227Z,8.07
2022-10-24T00:53:12.945Z,7.22
2022-10-24T00:55:39.677Z,8.52
2022-10-24T00:58:08.157Z,10.25
2022-10-24T01:00:35.125Z,10.85
2022-10-24T01:03:02.318Z,10.05
2022-10-24T01:05:48.984Z,7.78
2022-10-24T01:08:27.988Z,7.45
2022-10-24T01:11:29.503Z,5.40
2022-10-24T01:14:08.189Z,5.63
2022-10-24T01:17:10.043Z,8.20
2022-10-24T01:20:27.822Z,7.18
2022-10-24T01:23:17.736Z,6.60
2022-10-24T01:25:50.018Z,7.53
2022-10-24T01:28:23.176Z,6.22
2022-10-24T01:30:59.449Z,9.20
2022-10-24T01:33:37.514Z,7.88
2022-10-24T01:36:36.042Z,7.20
2022-10-24T01:39:05.979Z,6.05
2022-10-24T01:41:33.667Z,7.53
2022-10-24T01:44:06.138Z,5.15
2022-10-24T01:46:39.637Z,5.75
2022-10-24T01:49:13.439Z,6.18
2022-10-24T01:51:41.675Z,6.97
2022-10-24T01:56:35.795Z,6.00
2022-10-24T01:59:30.716Z,5.63
2022-10-24T02:02:27.866Z,6.60
2022-10-24T02:05:00.612Z,6.20
2022-10-24T02:07:28.771Z,8.38
2022-10-24T02:10:01.527Z,7.05
2022-10-24T02:12:29.264Z,7.82
2022-10-24T02:15:05.024Z,10.30
2022-10-24T02:17:31.669Z,7.20
2022-10-24T02:19:59.784Z,9.30
2022-10-24T02:22:49.891Z,5.53
2022-10-24T02:25:47.126Z,8.55
2022-10-24T02:28:18.905Z,7.43
2022-10-24T02:30:57.359Z,6.38
2022-10-24T02:33:26.397Z,7.57
2022-10-24T02:35:53.860Z,6.70
2022-10-24T02:38:28.714Z,8.30
2022-10-24T02:40:58.871Z,7.75
2022-10-24T02:43:27.043Z,10.10
2022-10-24T02:48:25.310Z,10.48
2022-10-24T02:53:25.590Z,6.90
2022-10-24T02:55:52.470Z,6.55
2022-10-24T02:58:19.376Z,4.82
2022-10-24T03:00:45.951Z,6.90
2022-10-24T03:03:12.600Z,7.32
2022-10-24T03:05:39.146Z,7.50
2022-10-24T03:08:05.995Z,7.72
2022-10-24T03:10:32.489Z,7.22
2022-10-24T03:12:58.985Z,7.45
2022-10-24T03:15:25.442Z,5.60
2022-10-24T03:17:51.929Z,6.75
2022-10-24T03:20:18.389Z,6.22
2022-10-24T03:22:44.854Z,7.75
2022-10-24T03:25:11.926Z,8.05
2022-10-24T03:27:38.994Z,7.32
2022-10-24T03:30:06.349Z,7.97
2022-10-24T03:32:34.423Z,5.05
2022-10-24T03:35:01.794Z,4.90
2022-10-24T03:37:28.917Z,7.70
2022-10-24T03:39:55.409Z,8.20
2022-10-24T03:42:22.470Z,5.00
2022-10-24T03:44:49.044Z,7.88
2022-10-24T03:47:15.634Z,6.78
2022-10-24T03:49:42.091Z,4.57
2022-10-24T03:52:08.936Z,6.90
2022-10-24T03:54:35.643Z,8.93
2022-10-24T03:57:02.831Z,6.35
2022-10-24T03:59:29.375Z,7.10
2022-10-24T04:01:55.859Z,4.75
2022-10-24T04:04:22.480Z,5.68
2022-10-24T04:06:48.984Z,5.40
2022-10-24T04:09:15.440Z,7.22
2022-10-24T04:11:41.903Z,4.50
2022-10-24T04:14:09.635Z,4.38
2022-10-24T04:16:36.420Z,7.90
2022-10-24T04:19:03.024Z,5.68
2022-10-24T04:21:29.900Z,6.82
2022-10-24T04:23:56.757Z,7.60
2022-10-24T04:26:23.657Z,5.13
2022-10-24T04:28:50.862Z,11.45
2022-10-24T04:31:20.888Z,4.32
2022-10-24T04:33:49.932Z,7.32
2022-10-24T04:36:16.474Z,6.53
2022-10-24T04:38:42.958Z,6.85
2022-10-24T04:41:11.948Z,7.57
2022-10-24T04:43:39.486Z,5.35
2022-10-24T04:46:07.031Z,7.63
2022-10-24T04:48:33.962Z,5.80
2022-10-24T04:51:00.634Z,8.38
2022-10-24T04:53:27.134Z,5.05
2022-10-24T04:55:53.627Z,8.25
2022-10-24T04:58:20.922Z,6.57
2022-10-24T05:00:49.776Z,5.28
2022-10-24T05:03:20.603Z,5.60
2022-10-24T05:05:47.697Z,5.95
2022-10-24T05:08:14.313Z,8.02
2022-10-24T05:10:41.015Z,7.65
2022-10-24T05:13:07.725Z,5.10
2022-10-24T05:15:34.149Z,6.03
2022-10-24T05:18:00.710Z,3.33
2022-10-24T05:20:28.133Z,5.95
2022-10-24T05:22:54.811Z,5.22
2022-10-24T05:25:21.318Z,7.68
2022-10-24T05:27:47.863Z,6.57
2022-10-24T05:30:14.559Z,5.60
2022-10-24T05:32:41.180Z,8.30
2022-10-24T05:35:08.881Z,6.40
2022-10-24T05:37:35.525Z,4.57
2022-10-24T05:40:02.068Z,5.00
2022-10-24T05:42:28.527Z,8.77
2022-10-24T05:44:55.033Z,5.20
2022-10-24T05:47:23.554Z,10.52
2022-10-24T05:49:52.184Z,4.95
2022-10-24T05:52:18.665Z,6.80
2022-10-24T05:54:55.261Z,4.90
2022-10-24T05:57:30.109Z,5.15
2022-10-24T05:59:56.598Z,6.72
2022-10-24T06:02:23.205Z,5.15
2022-10-24T06:04:50.737Z,5.43
2022-10-24T06:07:18.793Z,5.47
2022-10-24T06:09:45.272Z,5.50
2022-10-24T06:12:11.833Z,3.22
2022-10-24T06:14:39.309Z,5.93
2022-10-24T06:17:09.009Z,4.32
2022-10-24T06:19:36.806Z,6.07
2022-10-24T06:22:04.446Z,7.28
2022-10-24T06:24:30.972Z,5.63
2022-10-24T06:26:57.460Z,7.03
2022-10-24T06:29:23.960Z,6.00
2022-10-24T06:31:50.540Z,7.70
2022-10-24T06:34:17.104Z,5.85
2022-10-24T06:36:43.589Z,6.07
2022-10-24T06:39:10.076Z,10.18
2022-10-24T06:41:36.570Z,6.15
2022-10-24T06:44:06.619Z,6.55
2022-10-24T06:46:35.396Z,6.43
2022-10-24T06:49:01.869Z,6.00
2022-10-24T06:51:28.395Z,7.60
2022-10-24T06:53:54.975Z,6.47
2022-10-24T06:56:21.493Z,8.68
2022-10-24T06:58:47.936Z,6.32
2022-10-24T07:01:18.796Z,8.30
2022-10-24T07:03:45.642Z,9.40
2022-10-24T07:08:48.790Z,8.82
2022-10-24T07:11:15.324Z,9.15
2022-10-24T07:13:41.841Z,5.28
2022-10-24T07:16:08.684Z,8.35
2022-10-24T07:18:35.311Z,7.50
2022-10-24T07:21:06.902Z,9.55
2022-10-24T07:23:34.150Z,8.00
2022-10-24T07:26:05.722Z,9.02
2022-10-24T07:28:32.941Z,6.22
2022-10-24T07:30:59.795Z,9.55
2022-10-24T07:33:26.848Z,8.18
2022-10-24T07:35:53.371Z,4.80
2022-10-24T07:38:19.844Z,5.30
2022-10-24T07:40:46.667Z,6.95
2022-10-24T07:43:13.743Z,7.00
2022-10-24T07:45:41.395Z,6.40
2022-10-24T07:48:08.075Z,5.85
2022-10-24T07:50:35.636Z,6.38
2022-10-24T07:53:02.100Z,6.47
2022-10-24T07:55:28.575Z,5.22
2022-10-24T07:57:55.276Z,5.68
2022-10-24T08:00:21.779Z,6.75
2022-10-24T08:05:18.142Z,5.05
2022-10-24T08:07:55.857Z,8.95
2022-10-24T08:10:32.195Z,7.20
2022-10-24T08:12:58.961Z,7.28
2022-10-24T08:15:27.723Z,8.38
2022-10-24T08:17:55.292Z,6.50
2022-10-24T08:20:24.086Z,5.68
2022-10-24T08:22:50.527Z,6.30
2022-10-24T08:25:17.098Z,4.80
2022-10-24T08:27:43.748Z,5.85
2022-10-24T08:30:10.684Z,7.15
2022-10-24T08:32:38.295Z,4.47
2022-10-24T08:35:06.332Z,7.18
2022-10-24T08:40:09.380Z,6.25
2022-10-24T08:42:36.250Z,6.63
2022-10-24T08:45:03.087Z,5.88
2022-10-24T08:47:58.954Z,5.63
2022-10-24T08:50:30.600Z,7.07
2022-10-24T08:53:13.398Z,5.72
2022-10-24T08:55:50.629Z,5.22
2022-10-24T08:58:28.294Z,5.82
2022-10-24T09:00:57.968Z,6.03
2022-10-24T09:03:56.591Z,7.90
2022-10-24T09:06:30.114Z,4.93
2022-10-24T09:09:21.224Z,6.22
2022-10-24T09:11:50.705Z,5.70
2022-10-24T09:14:39.217Z,5.32
2022-10-24T09:17:25.780Z,8.05
2022-10-24T09:19:58.356Z,4.50
2022-10-24T09:22:28.701Z,5.00
2022-10-24T09:25:01.667Z,5.13
2022-10-24T09:27:32.114Z,5.63
2022-10-24T09:29:59.443Z,6.00
2022-10-24T09:32:30.603Z,7.18
2022-10-24T09:35:03.658Z,6.30
2022-10-24T09:37:47.449Z,6.78
2022-10-24T09:40:31.608Z,6.03
2022-10-24T09:43:16.351Z,7.97
2022-10-24T09:45:49.140Z,8.90
2022-10-24T09:48:35.707Z,6.88
2022-10-24T09:51:03.004Z,6.20
2022-10-24T09:53:34.086Z,8.18
2022-10-24T09:56:20.776Z,7.38
2022-10-24T09:58:47.214Z,9.27
2022-10-24T10:01:13.719Z,7.35
2022-10-24T10:03:40.453Z,8.80
2022-10-24T10:06:20.459Z,5.90
2022-10-24T10:08:53.410Z,7.25
2022-10-24T10:11:35.019Z,6.43
2022-10-24T10:14:16.216Z,5.65
2022-10-24T10:16:42.773Z,6.13
2022-10-24T10:19:20.388Z,9.98
2022-10-24T10:22:04.451Z,10.15
2022-10-24T10:24:39.976Z,7.10
2022-10-24T10:27:24.829Z,6.18
2022-10-24T10:30:10.152Z,5.90
2022-10-24T10:32:44.919Z,7.78
2022-10-24T10:35:26.499Z,4.35
2022-10-24T10:38:16.227Z,5.90
2022-10-24T10:41:01.630Z,5.63
2022-10-24T10:43:43.165Z,7.65
2022-10-24T10:46:56.887Z,6.20
2022-10-24T10:49:41.427Z,8.73
2022-10-24T10:52:32.173Z,6.35
2022-10-24T10:55:18.860Z,8.63
2022-10-24T10:57:56.338Z,4.43
2022-10-24T11:00:22.773Z,5.93
2022-10-24T11:03:10.619Z,6.63
2022-10-24T11:05:58.845Z,8.07
2022-10-24T11:08:46.795Z,5.05
2022-10-24T11:11:18.549Z,5.95
2022-10-24T11:13:56.609Z,5.50
2022-10-24T11:16:27.005Z,7.43
2022-10-24T11:19:00.162Z,4.47
2022-10-24T11:21:30.964Z,5.50
2022-10-24T11:24:07.581Z,5.75
2022-10-24T11:26:43.351Z,4.88
2022-10-24T11:29:22.352Z,4.35
2022-10-24T11:31:54.056Z,5.38
2022-10-24T11:34:45.137Z,3.58
2022-10-24T11:37:18.051Z,5.43
2022-10-24T11:40:03.043Z,5.88
2022-10-24T11:42:52.581Z,5.20
2022-10-24T11:45:21.139Z,5.68
2022-10-24T11:48:11.092Z,4.72
2022-10-24T11:51:07.217Z,7.55
2022-10-24T11:53:34.260Z,6.18
2022-10-24T11:56:30.933Z,5.13
2022-10-24T11:59:01.313Z,5.20
2022-10-24T12:01:47.582Z,6.40
2022-10-24T12:04:19.890Z,5.82
2022-10-24T12:06:58.408Z,6.10
2022-10-24T12:09:43.375Z,7.75
2022-10-24T12:12:17.765Z,6.47
2022-10-24T12:14:58.434Z,7.20
2022-10-24T12:18:03.696Z,5.07
2022-10-24T12:20:31.640Z,6.78
2022-10-24T12:23:01.012Z,5.97
2022-10-24T12:25:33.225Z,5.75
2022-10-24T12:28:02.879Z,6.80
2022-10-24T12:30:33.147Z,4.88
2022-10-24T12:33:23.503Z,5.55
2022-10-24T12:35:52.895Z,7.80
2022-10-24T12:38:39.777Z,7.20
2022-10-24T12:41:34.104Z,7.68
2022-10-24T12:44:33.471Z,5.65
2022-10-24T12:47:46.203Z,3.85
2022-10-24T12:50:21.679Z,4.47
2022-10-24T12:52:48.353Z,6.88
2022-10-24T12:55:39.480Z,7.28
2022-10-24T12:58:29.637Z,5.47
2022-10-24T13:00:58.816Z,5.53
2022-10-24T13:03:53.376Z,5.50
2022-10-24T13:06:45.479Z,6.07
2022-10-24T13:09:23.371Z,8.63
2022-10-24T13:12:22.249Z,3.97
2022-10-24T13:14:51.544Z,6.43
2022-10-24T13:17:47.576Z,6.22
2022-10-24T13:20:22.370Z,5.38
2022-10-24T13:22:50.949Z,7.88
2022-10-24T13:25:33.572Z,7.82
2022-10-24T13:28:24.817Z,5.25
2022-10-24T13:30:54.311Z,4.82
2022-10-24T13:33:36.465Z,5.65
2022-10-24T13:36:08.867Z,6.05
2022-10-24T13:38:42.914Z,7.28
2022-10-24T13:41:12.679Z,10.10
2022-10-24T13:43:45.722Z,6.55
2022-10-24T13:46:37.502Z,5.22
2022-10-24T13:49:06.390Z,7.30
2022-10-24T13:51:43.438Z,5.80
2022-10-24T13:54:26.851Z,8.30
2022-10-24T13:56:55.948Z,7.03
2022-10-24T13:59:37.310Z,7.63
2022-10-24T14:02:28.376Z,8.30
2022-10-24T14:04:58.798Z,7.22
2022-10-24T14:07:31.523Z,8.18
2022-10-24T14:10:02.777Z,8.05
2022-10-24T14:12:32.886Z,8.05
2022-10-24T14:15:02.639Z,5.93
2022-10-24T14:17:33.688Z,7.18
2022-10-24T14:20:09.729Z,7.47
2022-10-24T14:22:42.196Z,6.15
2022-10-24T14:25:24.413Z,7.55
2022-10-24T14:27:53.050Z,7.75
2022-10-24T14:30:22.451Z,6.45
2022-10-24T14:32:49.649Z,7.47
2022-10-24T14:35:16.648Z,8.10
2022-10-24T14:37:44.052Z,6.50
2022-10-24T14:40:18.568Z,7.68
2022-10-24T14:42:46.969Z,7.00
2022-10-24T14:45:28.749Z,6.70
2022-10-24T14:47:57.878Z,12.00
2022-10-24T14:50:43.123Z,7.90
2022-10-24T14:53:25.290Z,7.10
2022-10-24T14:56:01.359Z,6.05
2022-10-24T14:58:30.575Z,7.18
2022-10-24T15:00:58.603Z,7.90
2022-10-24T15:06:06.443Z,8.88
2022-10-24T15:08:38.523Z,6.15
2022-10-24T15:11:15.111Z,9.48
2022-10-24T15:14:05.279Z,7.93
2022-10-24T15:16:38.603Z,8.15
2022-10-24T15:19:11.061Z,7.75
2022-10-24T15:21:41.779Z,6.20
2022-10-24T15:24:25.333Z,9.27
2022-10-24T15:26:52.647Z,5.38
2022-10-24T15:29:23.238Z,9.25
2022-10-24T15:31:51.700Z,6.63
2022-10-24T15:34:21.625Z,6.03
2022-10-24T15:36:50.157Z,12.80
2022-10-24T15:39:20.066Z,7.88
2022-10-24T15:41:46.732Z,11.93
2022-10-24T15:44:30.324Z,8.82
2022-10-24T15:46:56.907Z,19.38
2022-10-24T15:49:23.337Z,15.27
2022-10-24T15:51:51.266Z,6.57
2022-10-24T15:54:21.032Z,5.85
2022-10-24T15:56:47.659Z,6.93
2022-10-24T15:59:14.564Z,6.05
2022-10-24T16:02:02.941Z,7.68
2022-10-24T16:04:31.780Z,7.10
2022-10-24T16:06:58.500Z,8.93
2022-10-24T16:09:31.227Z,6.93
2022-10-24T16:11:58.022Z,10.05
2022-10-24T16:14:27.287Z,6.03
2022-10-24T16:16:56.680Z,5.40
2022-10-24T16:19:27.152Z,12.18
2022-10-24T16:21:58.427Z,6.03
2022-10-24T16:24:26.789Z,8.32
2022-10-24T16:29:19.726Z,6.32
2022-10-24T16:31:48.103Z,7.07
2022-10-24T16:34:14.913Z,7.65
2022-10-24T16:36:41.399Z,13.55
2022-10-24T16:39:08.581Z,8.30
2022-10-24T16:41:35.141Z,16.73
2022-10-24T16:44:02.463Z,9.38
2022-10-24T16:46:29.009Z,13.18
2022-10-24T16:48:55.993Z,16.90
2022-10-24T16:51:27.348Z,7.25
2022-10-24T16:53:53.806Z,8.20
2022-10-24T16:56:20.316Z,10.50
2022-10-24T16:58:46.833Z,12.07
2022-10-24T17:01:15.335Z,9.00
2022-10-24T17:03:42.473Z,6.10
2022-10-24T17:06:09.236Z,7.78
2022-10-24T17:08:35.782Z,9.98
2022-10-24T17:11:02.743Z,12.32
2022-10-24T17:13:29.749Z,11.60
2022-10-24T17:15:56.739Z,9.65
2022-10-24T17:18:25.530Z,9.93
2022-10-24T17:20:58.795Z,9.43
2022-10-24T17:23:26.508Z,11.90
2022-10-24T17:25:53.646Z,12.10
2022-10-24T17:28:20.489Z,10.27
2022-10-24T17:30:47.731Z,12.35
2022-10-24T17:33:14.666Z,12.43
2022-10-24T17:35:47.316Z,11.82
2022-10-24T17:38:24.500Z,12.77
2022-10-24T17:40:51.307Z,12.25
2022-10-24T17:43:21.561Z,13.82
2022-10-24T17:45:49.625Z,14.30
2022-10-24T17:48:16.478Z,13.13
2022-10-24T17:50:43.213Z,10.80
2022-10-24T17:53:14.264Z,12.90
2022-10-24T17:55:46.191Z,12.60
2022-10-24T17:58:13.336Z,11.65
2022-10-24T18:00:40.285Z,7.78
2022-10-24T18:03:08.487Z,8.57
2022-10-24T18:08:07.463Z,10.90
2022-10-24T18:10:36.016Z,8.75
2022-10-24T18:13:02.573Z,11.00
2022-10-24T18:15:29.202Z,10.75
2022-10-24T18:17:55.712Z,13.05
2022-10-24T18:20:22.168Z,13.38
2022-10-24T18:22:49.227Z,8.82
2022-10-24T18:25:20.258Z,12.93
2022-10-24T18:27:49.863Z,7.72
2022-10-24T18:30:16.501Z,10.65
2022-10-24T18:32:43.110Z,10.93
2022-10-24T18:35:09.770Z,8.48
2022-10-24T18:37:36.545Z,8.63
2022-10-24T18:40:05.500Z,11.82
2022-10-24T18:42:50.523Z,9.50
2022-10-24T18:45:25.889Z,10.10
2022-10-24T18:47:53.538Z,10.70
2022-10-24T18:50:23.243Z,9.15
2022-10-24T18:53:08.240Z,12.15
2022-10-24T18:55:35.698Z,8.35
2022-10-24T18:58:02.775Z,9.15
2022-10-24T19:00:32.161Z,12.20
2022-10-24T19:03:13.838Z,10.65
2022-10-24T19:05:49.107Z,12.13
2022-10-24T19:08:22.403Z,10.50
2022-10-24T19:10:51.779Z,9.32
2022-10-24T19:13:18.610Z,10.60
2022-10-24T19:15:55.807Z,11.00
2022-10-24T19:18:22.787Z,8.23
2022-10-24T19:20:49.303Z,13.73
2022-10-24T19:23:17.283Z,10.15
2022-10-24T19:25:44.778Z,13.40
2022-10-24T19:28:15.332Z,13.85
2022-10-24T19:30:42.384Z,13.40
2022-10-24T19:33:09.336Z,12.35
2022-10-24T19:35:41.866Z,11.27
2022-10-24T19:38:08.353Z,10.75
2022-10-24T19:40:34.831Z,12.02
2022-10-24T19:43:01.230Z,13.77
2022-10-24T19:45:27.739Z,9.75
2022-10-24T19:47:55.358Z,12.35
2022-10-24T19:50:22.294Z,11.35
2022-10-24T19:52:48.866Z,11.80
2022-10-24T19:55:15.437Z,13.15
2022-10-24T19:57:41.891Z,11.45
2022-10-24T20:00:08.894Z,10.25
2022-10-24T20:02:35.385Z,11.05
2022-10-24T20:05:01.873Z,11.45
2022-10-24T20:07:28.331Z,13.23
2022-10-24T20:09:54.839Z,13.13
2022-10-24T20:12:21.276Z,12.35
2022-10-24T20:14:47.732Z,10.45
2022-10-24T20:17:14.630Z,9.60
2022-10-24T20:19:41.205Z,14.10
2022-10-24T20:22:07.645Z,11.48
2022-10-24T20:24:34.119Z,11.88
2022-10-24T20:27:01.060Z,14.30
2022-10-24T20:29:27.513Z,10.00
2022-10-24T20:31:54.076Z,12.98
2022-10-24T20:34:20.636Z,11.77
2022-10-24T20:36:48.154Z,10.07
2022-10-24T20:39:21.145Z,9.80
2022-10-24T20:41:51.729Z,11.30
2022-10-24T20:44:20.627Z,11.35
2022-10-24T20:46:47.083Z,13.80
2022-10-24T20:49:13.596Z,10.00
2022-10-24T20:51:43.398Z,9.93
2022-10-24T20:54:10.706Z,12.30
2022-10-24T20:56:41.986Z,9.68
2022-10-24T20:59:09.249Z,11.00
2022-10-24T21:01:35.826Z,10.38
2022-10-24T21:04:02.385Z,9.98
2022-10-24T21:06:31.378Z,10.63
2022-10-24T21:09:00.719Z,11.70
2022-10-24T21:11:29.140Z,11.07
2022-10-24T21:14:01.426Z,11.55
2022-10-24T21:16:29.020Z,12.63
2022-10-24T21:18:56.667Z,12.20
2022-10-24T21:21:23.714Z,13.07
2022-10-24T21:24:02.236Z,11.15
2022-10-24T21:26:34.069Z,8.93
2022-10-24T21:29:08.823Z,11.15
2022-10-24T21:31:41.343Z,11.40
2022-10-24T21:34:08.040Z,12.20
2022-10-24T21:36:34.553Z,9.93
2022-10-24T21:39:01.027Z,14.68
2022-10-24T21:41:28.205Z,11.55
2022-10-24T21:43:55.187Z,9.85
2022-10-24T21:46:24.104Z,10.52
2022-10-24T21:48:51.894Z,9.95
2022-10-24T21:51:23.985Z,10.10
2022-10-24T21:53:55.624Z,12.85
2022-10-24T21:56:24.435Z,10.60
2022-10-24T21:58:56.560Z,12.07
2022-10-24T22:01:27.419Z,14.13
2022-10-24T22:03:55.111Z,11.50
2022-10-24T22:06:22.457Z,10.45
2022-10-24T22:08:50.564Z,10.80
2022-10-24T22:11:19.745Z,15.38
2022-10-24T22:13:46.741Z,9.27
2022-10-24T22:16:14.070Z,11.90
2022-10-24T22:18:40.531Z,10.68
2022-10-24T22:21:09.972Z,10.63
2022-10-24T22:23:37.045Z,11.60
2022-10-24T22:26:04.641Z,12.45
2022-10-24T22:28:31.159Z,10.15
2022-10-24T22:30:57.924Z,12.32
2022-10-24T22:33:36.954Z,13.25
2022-10-24T22:36:11.574Z,10.70
2022-10-24T22:38:38.393Z,13.43
2022-10-24T22:41:05.062Z,11.52
2022-10-24T22:43:33.373Z,11.40
2022-10-24T22:48:30.987Z,12.63
2022-10-24T22:50:57.658Z,9.98
2022-10-24T22:53:27.374Z,10.90
2022-10-24T22:55:53.753Z,10.80
2022-10-24T22:58:21.201Z,9.55
2022-10-24T23:01:09.846Z,14.10
2022-10-24T23:03:59.436Z,9.63
2022-10-24T23:06:46.956Z,9.55
2022-10-24T23:09:13.433Z,11.45
2022-10-24T23:11:40.534Z,14.20
2022-10-24T23:14:07.433Z,12.25
2022-10-24T23:16:43.648Z,10.27
2022-10-24T23:19:22.040Z,11.43
2022-10-24T23:22:17.618Z,9.98
2022-10-24T23:24:44.492Z,11.35
2022-10-24T23:27:13.747Z,12.10
2022-10-24T23:29:43.352Z,9.45
2022-10-24T23:32:20.649Z,13.55
2022-10-24T23:34:48.102Z,10.25
2022-10-24T23:37:26.760Z,9.98
2022-10-24T23:39:53.569Z,9.82
2022-10-24T23:42:20.371Z,13.63
2022-10-24T23:44:47.161Z,8.73
2022-10-24T23:47:28.244Z,10.27
2022-10-24T23:50:10.301Z,9.68
2022-10-24T23:53:04.163Z,10.68
2022-10-24T23:55:31.045Z,13.38
2022-10-24T23:57:57.533Z,11.85
